createdAt,value
2023-05-23T00:01:38.621Z,16.84
2023-05-23T00:04:09.559Z,16.82
2023-05-23T00:06:47.312Z,16.83
2023-05-23T00:09:18.045Z,16.82
2023-05-23T00:11:48.663Z,16.79
2023-05-23T00:14:19.125Z,16.77
2023-05-23T00:16:49.842Z,16.73
2023-05-23T00:19:20.216Z,16.70
2023-05-23T00:21:54.028Z,16.69
2023-05-23T00:24:27.536Z,16.65
2023-05-23T00:26:59.267Z,16.59
2023-05-23T00:29:29.641Z,16.57
2023-05-23T00:31:59.903Z,16.53
2023-05-23T00:34:29.910Z,16.53
2023-05-23T00:37:02.741Z,16.49
2023-05-23T00:39:32.977Z,16.46
2023-05-23T00:42:08.229Z,16.39
2023-05-23T00:44:38.517Z,16.37
2023-05-23T00:47:10.237Z,16.38
2023-05-23T00:49:40.658Z,16.29
2023-05-23T00:52:14.148Z,16.29
2023-05-23T00:54:45.754Z,16.31
2023-05-23T00:57:16.128Z,16.28
2023-05-23T00:59:48.546Z,16.26
2023-05-23T01:02:21.840Z,16.28
2023-05-23T01:04:54.501Z,16.31
2023-05-23T01:07:27.688Z,16.31
2023-05-23T01:09:58.054Z,16.28
2023-05-23T01:12:32.520Z,16.25
2023-05-23T01:15:09.461Z,16.29
2023-05-23T01:17:47.781Z,16.22
2023-05-23T01:20:24.296Z,16.24
2023-05-23T01:23:12.112Z,16.12
2023-05-23T01:25:59.865Z,16.04
2023-05-23T01:28:35.637Z,15.95
2023-05-23T01:31:07.505Z,15.87
2023-05-23T01:33:39.395Z,15.83
2023-05-23T01:36:16.373Z,15.76
2023-05-23T01:38:46.612Z,15.74
2023-05-23T01:41:17.142Z,15.75
2023-05-23T01:43:50.116Z,15.72
2023-05-23T01:46:21.168Z,15.69
2023-05-23T01:48:52.218Z,15.70
2023-05-23T01:51:25.576Z,15.70
2023-05-23T01:53:56.483Z,15.70
2023-05-23T01:56:27.950Z,15.67
2023-05-23T01:59:04.004Z,15.72
2023-05-23T02:01:34.577Z,15.70
2023-05-23T02:04:04.990Z,15.69
2023-05-23T02:06:34.963Z,15.67
2023-05-23T02:09:06.378Z,15.64
2023-05-23T02:11:36.297Z,15.63
2023-05-23T02:14:10.598Z,15.57
2023-05-23T02:16:40.884Z,15.53
2023-05-23T02:19:11.059Z,15.51
2023-05-23T02:21:41.591Z,15.52
2023-05-23T02:24:11.920Z,15.52
2023-05-23T02:26:42.029Z,15.48
2023-05-23T02:29:14.881Z,15.42
2023-05-23T02:31:45.278Z,15.39
2023-05-23T02:34:15.609Z,15.36
2023-05-23T02:36:45.869Z,15.34
2023-05-23T02:39:15.927Z,15.32
2023-05-23T02:41:46.451Z,15.30
2023-05-23T02:44:19.997Z,15.28
2023-05-23T02:46:50.217Z,15.24
2023-05-23T02:49:20.540Z,15.25
2023-05-23T02:51:51.010Z,15.25
2023-05-23T02:54:21.984Z,15.22
2023-05-23T02:56:52.712Z,15.19
2023-05-23T02:59:27.085Z,15.19
2023-05-23T03:01:57.594Z,15.18
2023-05-23T03:04:27.981Z,15.25
2023-05-23T03:06:59.923Z,15.26
2023-05-23T03:09:30.106Z,15.28
2023-05-23T03:12:00.337Z,15.30
2023-05-23T03:14:33.212Z,15.36
2023-05-23T03:17:04.240Z,15.45
2023-05-23T03:19:36.594Z,15.44
2023-05-23T03:22:07.695Z,15.48
2023-05-23T03:24:37.928Z,15.48
2023-05-23T03:27:08.221Z,15.54
2023-05-23T03:29:41.388Z,15.62
2023-05-23T03:32:11.705Z,15.69
2023-05-23T03:34:41.667Z,15.72
2023-05-23T03:37:12.163Z,15.75
2023-05-23T03:39:42.437Z,15.82
2023-05-23T03:42:12.362Z,15.84
2023-05-23T03:44:45.303Z,15.91
2023-05-23T03:47:15.539Z,15.92
2023-05-23T03:49:46.125Z,15.97
2023-05-23T03:52:16.333Z,16.06
2023-05-23T03:54:46.976Z,16.11
2023-05-23T03:57:17.178Z,16.24
2023-05-23T03:59:50.274Z,16.24
2023-05-23T04:02:23.552Z,16.33
2023-05-23T04:04:54.403Z,16.39
2023-05-23T04:07:26.787Z,16.51
2023-05-23T04:09:57.059Z,16.67
2023-05-23T04:12:27.077Z,16.81
2023-05-23T04:15:00.063Z,16.94
2023-05-23T04:17:31.564Z,17.06
2023-05-23T04:20:01.936Z,17.17
2023-05-23T04:22:31.877Z,17.73
2023-05-23T04:25:02.107Z,18.68
2023-05-23T04:27:32.152Z,19.58
2023-05-23T04:30:05.203Z,20.38
2023-05-23T04:32:36.609Z,20.82
2023-05-23T04:35:07.261Z,21.11
2023-05-23T04:37:38.110Z,21.76
2023-05-23T04:40:09.627Z,22.45
2023-05-23T04:42:42.671Z,22.92
2023-05-23T04:45:15.848Z,23.61
2023-05-23T04:47:46.180Z,24.07
2023-05-23T04:50:18.702Z,24.47
2023-05-23T04:52:48.978Z,24.47
2023-05-23T04:55:20.416Z,24.34
2023-05-23T04:57:51.107Z,24.69
2023-05-23T05:00:24.125Z,24.73
2023-05-23T05:02:54.390Z,25.07
2023-05-23T05:05:24.702Z,25.40
2023-05-23T05:07:54.945Z,25.78
2023-05-23T05:10:25.283Z,26.08
2023-05-23T05:12:55.520Z,26.22
2023-05-23T05:15:30.929Z,26.02
2023-05-23T05:18:01.280Z,25.52
2023-05-23T05:20:31.807Z,25.26
2023-05-23T05:23:02.207Z,25.52
2023-05-23T05:25:34.814Z,26.04
2023-05-23T05:28:06.528Z,26.69
2023-05-23T05:30:39.630Z,27.09
2023-05-23T05:33:10.510Z,27.27
2023-05-23T05:35:41.405Z,27.38
2023-05-23T05:38:11.661Z,27.69
2023-05-23T05:40:49.193Z,28.05
2023-05-23T05:43:19.391Z,28.41
2023-05-23T05:45:52.309Z,28.66
2023-05-23T05:48:22.594Z,28.58
2023-05-23T05:50:53.065Z,28.42
2023-05-23T05:53:23.329Z,28.37
2023-05-23T05:55:53.560Z,28.40
2023-05-23T05:58:23.895Z,28.55
2023-05-23T06:00:56.768Z,28.82
2023-05-23T06:03:27.856Z,28.41
2023-05-23T06:05:58.340Z,28.64
2023-05-23T06:08:28.918Z,28.46
2023-05-23T06:10:59.368Z,28.90
2023-05-23T06:13:29.670Z,29.24
2023-05-23T06:16:02.831Z,29.04
2023-05-23T06:18:33.179Z,28.92
2023-05-23T06:21:03.520Z,28.85
2023-05-23T06:23:36.726Z,29.06
2023-05-23T06:26:10.820Z,29.28
2023-05-23T06:28:42.272Z,29.65
2023-05-23T06:31:15.411Z,29.51
2023-05-23T06:33:45.994Z,29.65
2023-05-23T06:36:16.366Z,29.69
2023-05-23T06:38:46.707Z,29.91
2023-05-23T06:41:17.050Z,29.39
2023-05-23T06:43:47.271Z,29.64
2023-05-23T06:46:20.396Z,29.60
2023-05-23T06:48:59.274Z,29.34
2023-05-23T06:51:37.166Z,29.53
2023-05-23T06:54:08.217Z,29.63
2023-05-23T06:56:38.478Z,29.65
2023-05-23T06:59:08.882Z,29.01
2023-05-23T07:01:41.921Z,29.24
2023-05-23T07:04:12.494Z,28.71
2023-05-23T07:06:42.878Z,29.00
2023-05-23T07:09:13.952Z,28.83
2023-05-23T07:11:44.241Z,28.95
2023-05-23T07:14:14.545Z,29.05
2023-05-23T07:16:47.487Z,29.10
2023-05-23T07:19:17.849Z,28.77
2023-05-23T07:21:48.256Z,28.83
2023-05-23T07:24:20.408Z,29.29
2023-05-23T07:26:51.853Z,29.39
2023-05-23T07:29:22.469Z,29.70
2023-05-23T07:31:55.426Z,29.62
2023-05-23T07:34:27.077Z,29.93
2023-05-23T07:36:57.409Z,30.25
2023-05-23T07:39:28.260Z,29.89
2023-05-23T07:41:58.613Z,29.64
2023-05-23T07:44:29.397Z,29.78
2023-05-23T07:47:02.722Z,30.28
2023-05-23T07:49:36.111Z,30.88
2023-05-23T07:52:09.401Z,30.82
2023-05-23T07:54:39.743Z,30.72
2023-05-23T07:57:10.377Z,30.31
2023-05-23T07:59:41.540Z,30.79
2023-05-23T08:02:14.526Z,30.81
2023-05-23T08:04:45.619Z,30.32
2023-05-23T08:07:18.618Z,30.52
2023-05-23T08:09:49.720Z,30.99
2023-05-23T08:12:20.059Z,30.53
2023-05-23T08:14:52.376Z,30.78
2023-05-23T08:17:25.768Z,31.23
2023-05-23T08:19:56.080Z,31.27
2023-05-23T08:22:26.379Z,31.37
2023-05-23T08:24:56.583Z,31.54
2023-05-23T08:27:26.904Z,31.16
2023-05-23T08:29:57.223Z,31.09
2023-05-23T08:32:30.554Z,30.42
2023-05-23T08:35:01.024Z,30.81
2023-05-23T08:37:31.340Z,30.74
2023-05-23T08:40:01.936Z,30.07
2023-05-23T08:42:32.419Z,29.89
2023-05-23T08:45:02.905Z,30.00
2023-05-23T08:47:40.827Z,30.47
2023-05-23T08:50:13.746Z,30.81
2023-05-23T08:52:51.054Z,30.92
2023-05-23T08:55:21.723Z,30.97
2023-05-23T08:57:52.684Z,30.61
2023-05-23T09:00:24.990Z,30.69
2023-05-23T09:02:58.402Z,30.30
2023-05-23T09:05:30.123Z,30.43
2023-05-23T09:08:01.452Z,30.73
2023-05-23T09:10:31.930Z,31.17
2023-05-23T09:13:03.683Z,31.51
2023-05-23T09:15:34.636Z,31.84
2023-05-23T09:18:07.542Z,31.84
2023-05-23T09:20:37.970Z,32.09
2023-05-23T09:23:09.441Z,32.06
2023-05-23T09:25:48.949Z,31.88
2023-05-23T09:28:19.270Z,31.81
2023-05-23T09:30:49.602Z,31.62
2023-05-23T09:33:22.642Z,31.52
2023-05-23T09:35:52.910Z,31.41
2023-05-23T09:38:23.147Z,31.22
2023-05-23T09:40:55.118Z,31.30
2023-05-23T09:43:25.457Z,31.56
2023-05-23T09:45:57.302Z,31.20
2023-05-23T09:48:34.246Z,30.91
2023-05-23T09:51:09.343Z,30.89
2023-05-23T09:53:40.279Z,30.58
2023-05-23T09:56:15.593Z,30.88
2023-05-23T09:58:49.769Z,31.02
2023-05-23T10:01:23.669Z,30.93
2023-05-23T10:04:00.713Z,31.17
2023-05-23T10:06:38.118Z,31.72
2023-05-23T10:09:09.718Z,31.63
2023-05-23T10:12:24.863Z,31.52
2023-05-23T10:14:58.131Z,31.39
2023-05-23T10:17:39.008Z,31.51
2023-05-23T10:20:15.260Z,31.66
2023-05-23T10:22:46.054Z,31.77
2023-05-23T10:25:16.624Z,32.18
2023-05-23T10:27:47.302Z,32.33
2023-05-23T10:30:18.186Z,32.55
2023-05-23T10:32:49.191Z,32.40
2023-05-23T10:35:28.560Z,31.95
2023-05-23T10:38:05.026Z,31.68
2023-05-23T10:40:47.830Z,31.50
2023-05-23T10:43:26.792Z,31.70
2023-05-23T10:45:57.101Z,31.99
2023-05-23T10:48:36.078Z,31.92
2023-05-23T10:51:10.125Z,31.68
2023-05-23T10:53:41.515Z,31.60
2023-05-23T10:56:13.409Z,31.57
2023-05-23T10:58:46.904Z,31.48
2023-05-23T11:01:20.275Z,31.73
2023-05-23T11:03:56.246Z,31.83
2023-05-23T11:06:38.790Z,31.39
2023-05-23T11:09:12.604Z,31.15
2023-05-23T11:11:58.115Z,31.52
2023-05-23T11:14:57.247Z,31.74
2023-05-23T11:17:34.911Z,31.87
2023-05-23T11:20:09.977Z,31.89
2023-05-23T11:22:43.090Z,31.68
2023-05-23T11:25:17.063Z,31.73
2023-05-23T11:27:49.709Z,32.06
2023-05-23T11:30:21.065Z,31.93
2023-05-23T11:32:56.524Z,31.45
2023-05-23T11:35:27.051Z,30.97
2023-05-23T11:38:00.614Z,31.26
2023-05-23T11:40:33.089Z,31.68
2023-05-23T11:43:05.238Z,31.76
2023-05-23T11:45:36.608Z,31.75
2023-05-23T11:48:12.157Z,31.82
2023-05-23T11:50:50.496Z,32.15
2023-05-23T11:53:25.941Z,32.09
2023-05-23T11:55:58.670Z,32.40
2023-05-23T11:58:30.680Z,32.60
2023-05-23T12:01:04.569Z,32.26
2023-05-23T12:03:35.198Z,31.83
2023-05-23T12:06:05.791Z,31.77
2023-05-23T12:08:38.687Z,31.30
2023-05-23T12:11:09.373Z,31.52
2023-05-23T12:13:45.058Z,31.99
2023-05-23T12:16:17.516Z,32.43
2023-05-23T12:18:47.963Z,32.64
2023-05-23T12:21:18.256Z,32.96
2023-05-23T12:23:54.314Z,32.90
2023-05-23T12:26:24.808Z,32.69
2023-05-23T12:28:55.155Z,32.90
2023-05-23T12:31:26.108Z,33.15
2023-05-23T12:33:56.808Z,33.49
2023-05-23T12:36:41.907Z,33.70
2023-05-23T12:39:28.365Z,33.49
2023-05-23T12:42:09.794Z,33.24
2023-05-23T12:44:40.326Z,33.47
2023-05-23T12:47:16.328Z,33.40
2023-05-23T12:49:47.190Z,32.76
2023-05-23T12:52:17.558Z,32.59
2023-05-23T12:54:50.573Z,32.53
2023-05-23T12:57:21.031Z,32.54
2023-05-23T12:59:51.353Z,32.33
2023-05-23T13:02:21.946Z,32.44
2023-05-23T13:04:53.242Z,32.44
2023-05-23T13:07:23.496Z,32.16
2023-05-23T13:09:56.523Z,32.10
2023-05-23T13:12:27.185Z,31.77
2023-05-23T13:15:00.704Z,31.61
2023-05-23T13:17:31.062Z,31.26
2023-05-23T13:20:01.396Z,31.21
2023-05-23T13:22:32.337Z,31.03
2023-05-23T13:25:05.268Z,31.09
2023-05-23T13:27:35.571Z,31.10
2023-05-23T13:30:06.098Z,31.02
2023-05-23T13:32:36.550Z,30.99
2023-05-23T13:35:07.322Z,30.85
2023-05-23T13:37:40.766Z,30.73
2023-05-23T13:40:19.715Z,30.46
2023-05-23T13:42:52.150Z,30.59
2023-05-23T13:45:23.502Z,30.63
2023-05-23T13:47:54.009Z,30.64
2023-05-23T13:50:24.363Z,30.65
2023-05-23T13:52:57.134Z,30.64
2023-05-23T13:55:30.865Z,30.50
2023-05-23T13:58:01.164Z,30.34
2023-05-23T14:00:33.568Z,30.30
2023-05-23T14:03:06.615Z,30.22
2023-05-23T14:05:37.026Z,30.20
2023-05-23T14:08:07.538Z,30.13
2023-05-23T14:10:40.706Z,30.26
2023-05-23T14:13:11.234Z,30.27
2023-05-23T14:15:42.794Z,30.34
2023-05-23T14:18:13.234Z,30.43
2023-05-23T14:20:43.522Z,30.40
2023-05-23T14:23:13.848Z,30.45
2023-05-23T14:25:46.758Z,30.54
2023-05-23T14:28:17.404Z,30.66
2023-05-23T14:30:49.433Z,30.78
2023-05-23T14:33:19.772Z,30.91
2023-05-23T14:35:50.115Z,31.25
2023-05-23T14:38:20.653Z,31.25
2023-05-23T14:40:56.434Z,31.16
2023-05-23T14:43:26.794Z,31.22
2023-05-23T14:45:59.450Z,31.03
2023-05-23T14:48:32.657Z,31.10
2023-05-23T14:51:03.533Z,31.16
2023-05-23T14:53:33.873Z,31.27
2023-05-23T14:56:06.946Z,31.29
2023-05-23T14:58:37.198Z,30.95
2023-05-23T15:01:07.830Z,30.75
2023-05-23T15:03:38.174Z,30.80
2023-05-23T15:06:09.068Z,30.53
2023-05-23T15:08:39.362Z,30.35
2023-05-23T15:11:12.373Z,29.94
2023-05-23T15:13:42.700Z,29.67
2023-05-23T15:16:16.380Z,29.47
2023-05-23T15:18:47.052Z,29.26
2023-05-23T15:21:17.442Z,29.02
2023-05-23T15:23:47.811Z,28.90
2023-05-23T15:26:23.040Z,28.75
2023-05-23T15:28:53.499Z,28.62
2023-05-23T15:31:23.864Z,28.49
2023-05-23T15:33:55.775Z,28.40
2023-05-23T15:36:26.198Z,28.34
2023-05-23T15:38:56.538Z,28.25
2023-05-23T15:41:29.558Z,28.05
2023-05-23T15:43:59.859Z,27.82
2023-05-23T15:46:30.320Z,27.78
2023-05-23T15:49:10.567Z,27.63
2023-05-23T15:51:50.765Z,27.51
2023-05-23T15:54:21.252Z,27.34
2023-05-23T15:56:57.111Z,27.31
2023-05-23T15:59:27.442Z,27.24
2023-05-23T16:01:57.923Z,26.96
2023-05-23T16:04:28.310Z,26.48
2023-05-23T16:07:00.866Z,25.90
2023-05-23T16:09:31.228Z,25.39
2023-05-23T16:12:04.161Z,24.96
2023-05-23T16:14:34.454Z,24.96
2023-05-23T16:17:07.185Z,24.41
2023-05-23T16:19:37.662Z,23.97
2023-05-23T16:22:10.687Z,23.78
2023-05-23T16:24:40.999Z,23.53
2023-05-23T16:27:13.815Z,23.42
2023-05-23T16:29:44.235Z,23.44
2023-05-23T16:32:15.693Z,23.41
2023-05-23T16:34:49.485Z,23.40
2023-05-23T16:37:23.159Z,23.36
2023-05-23T16:39:53.481Z,23.08
2023-05-23T16:42:26.461Z,22.90
2023-05-23T16:44:57.949Z,22.83
2023-05-23T16:47:28.348Z,22.64
2023-05-23T16:49:58.773Z,22.54
2023-05-23T16:52:29.069Z,22.47
2023-05-23T16:54:59.312Z,22.43
2023-05-23T16:57:32.394Z,22.40
2023-05-23T17:00:05.744Z,22.42
2023-05-23T17:02:36.769Z,22.39
2023-05-23T17:05:07.579Z,22.39
2023-05-23T17:07:38.270Z,22.40
2023-05-23T17:10:09.860Z,22.44
2023-05-23T17:12:43.056Z,22.41
2023-05-23T17:15:14.342Z,22.21
2023-05-23T17:17:44.728Z,22.01
2023-05-23T17:20:15.581Z,21.82
2023-05-23T17:22:46.651Z,21.58
2023-05-23T17:25:19.705Z,21.38
2023-05-23T17:27:54.953Z,21.30
2023-05-23T17:30:25.290Z,21.13
2023-05-23T17:32:55.704Z,21.09
2023-05-23T17:35:26.385Z,20.96
2023-05-23T17:37:58.112Z,20.87
2023-05-23T17:40:28.560Z,20.75
2023-05-23T17:43:03.361Z,20.69
2023-05-23T17:45:33.714Z,20.62
2023-05-23T17:48:06.860Z,20.57
2023-05-23T17:50:37.174Z,20.43
2023-05-23T17:53:08.073Z,20.46
2023-05-23T17:55:38.379Z,20.41
2023-05-23T17:58:11.425Z,20.40
2023-05-23T18:00:42.283Z,20.26
2023-05-23T18:03:13.312Z,20.13
2023-05-23T18:05:43.841Z,19.99
2023-05-23T18:08:14.206Z,19.94
2023-05-23T18:10:47.660Z,19.83
2023-05-23T18:13:20.612Z,19.73
2023-05-23T18:15:56.017Z,19.62
2023-05-23T18:18:26.673Z,19.55
2023-05-23T18:20:57.129Z,19.47
2023-05-23T18:23:29.638Z,19.48
2023-05-23T18:26:00.056Z,19.47
2023-05-23T18:28:33.170Z,19.42
2023-05-23T18:31:04.593Z,19.53
2023-05-23T18:33:35.161Z,19.53
2023-05-23T18:36:07.114Z,19.59
2023-05-23T18:38:37.721Z,19.54
2023-05-23T18:41:14.753Z,19.51
2023-05-23T18:43:51.672Z,19.40
2023-05-23T18:46:24.318Z,19.45
2023-05-23T18:48:57.519Z,19.43
2023-05-23T18:51:30.564Z,19.38
2023-05-23T18:54:01.482Z,19.32
2023-05-23T18:56:32.804Z,19.29
2023-05-23T18:59:13.840Z,19.36
2023-05-23T19:01:44.694Z,19.36
2023-05-23T19:04:15.378Z,19.40
2023-05-23T19:06:49.777Z,19.34
2023-05-23T19:09:20.829Z,19.28
2023-05-23T19:11:53.844Z,19.24
2023-05-23T19:14:27.002Z,19.20
2023-05-23T19:16:58.593Z,19.11
2023-05-23T19:19:31.706Z,19.07
2023-05-23T19:22:04.226Z,18.88
2023-05-23T19:24:35.299Z,18.84
2023-05-23T19:27:09.520Z,18.76
2023-05-23T19:29:44.829Z,18.79
2023-05-23T19:32:20.240Z,18.78
2023-05-23T19:34:50.695Z,18.80
2023-05-23T19:37:24.497Z,18.81
2023-05-23T19:39:54.892Z,18.79
2023-05-23T19:42:25.232Z,18.77
2023-05-23T19:44:58.452Z,18.83
2023-05-23T19:47:30.274Z,18.86
2023-05-23T19:50:01.212Z,18.84
2023-05-23T19:52:31.251Z,18.82
2023-05-23T19:55:03.332Z,18.88
2023-05-23T19:57:34.429Z,18.95
2023-05-23T20:00:11.591Z,19.00
2023-05-23T20:02:43.038Z,19.01
2023-05-23T20:05:13.505Z,19.02
2023-05-23T20:07:43.832Z,19.03
2023-05-23T20:10:15.160Z,19.02
2023-05-23T20:12:45.278Z,19.06
2023-05-23T20:15:27.588Z,19.05
2023-05-23T20:18:09.689Z,18.97
2023-05-23T20:20:40.469Z,18.96
2023-05-23T20:23:10.962Z,18.93
2023-05-23T20:25:41.849Z,18.93
2023-05-23T20:28:15.119Z,18.96
2023-05-23T20:30:48.240Z,18.96
2023-05-23T20:33:18.648Z,18.96
2023-05-23T20:35:50.004Z,18.96
2023-05-23T20:38:24.923Z,18.99
2023-05-23T20:40:55.645Z,19.01
2023-05-23T20:43:26.054Z,19.06
2023-05-23T20:46:01.800Z,19.00
2023-05-23T20:48:33.106Z,18.95
2023-05-23T20:51:07.684Z,18.89
2023-05-23T20:53:38.134Z,18.85
2023-05-23T20:56:10.427Z,18.82
2023-05-23T20:58:41.056Z,18.79
2023-05-23T21:01:15.346Z,18.80
2023-05-23T21:03:45.695Z,18.77
2023-05-23T21:06:15.662Z,18.75
2023-05-23T21:08:46.037Z,18.73
2023-05-23T21:11:16.436Z,18.64
2023-05-23T21:13:46.660Z,18.52
2023-05-23T21:16:19.895Z,18.54
2023-05-23T21:18:53.381Z,18.53
2023-05-23T21:21:23.935Z,18.57
2023-05-23T21:23:53.932Z,18.53
2023-05-23T21:26:24.208Z,18.48
2023-05-23T21:28:54.505Z,18.46
2023-05-23T21:31:40.289Z,18.49
2023-05-23T21:34:23.187Z,18.54
2023-05-23T21:36:56.145Z,18.51
2023-05-23T21:39:33.073Z,18.54
2023-05-23T21:42:10.633Z,18.54
2023-05-23T21:44:41.137Z,18.57
2023-05-23T21:47:14.159Z,18.55
2023-05-23T21:49:44.463Z,18.60
2023-05-23T21:52:14.491Z,18.57
2023-05-23T21:54:47.171Z,18.48
2023-05-23T21:57:17.557Z,18.57
2023-05-23T21:59:47.494Z,18.59
2023-05-23T22:02:20.387Z,18.56
2023-05-23T22:04:51.632Z,18.58
2023-05-23T22:07:25.524Z,18.57
2023-05-23T22:09:56.523Z,18.61
2023-05-23T22:12:27.146Z,18.63
2023-05-23T22:14:57.547Z,18.64
2023-05-23T22:17:30.747Z,18.63
2023-05-23T22:20:01.152Z,18.70
2023-05-23T22:22:36.812Z,18.70
2023-05-23T22:25:09.579Z,18.72
2023-05-23T22:27:39.808Z,18.76
2023-05-23T22:30:10.459Z,18.75
2023-05-23T22:32:43.462Z,18.74
2023-05-23T22:35:16.890Z,18.71
2023-05-23T22:37:47.115Z,18.64
2023-05-23T22:40:17.068Z,18.64
2023-05-23T22:42:47.468Z,18.61
2023-05-23T22:45:21.772Z,18.59
2023-05-23T22:47:54.786Z,18.59
2023-05-23T22:50:28.341Z,18.55
2023-05-23T22:52:59.901Z,18.56
2023-05-23T22:55:30.194Z,18.50
2023-05-23T22:58:00.205Z,18.55
2023-05-23T23:00:30.753Z,18.51
2023-05-23T23:03:07.805Z,18.51
2023-05-23T23:05:38.276Z,18.50
2023-05-23T23:08:08.723Z,18.44
2023-05-23T23:10:38.940Z,18.49
2023-05-23T23:13:12.003Z,18.50
2023-05-23T23:15:45.676Z,18.52
2023-05-23T23:18:23.605Z,18.52
2023-05-23T23:20:53.930Z,18.55
2023-05-23T23:23:27.288Z,18.57
2023-05-23T23:25:59.644Z,18.59
2023-05-23T23:28:32.350Z,18.62
2023-05-23T23:31:05.542Z,18.62
2023-05-23T23:33:38.663Z,18.59
2023-05-23T23:36:09.806Z,18.58
2023-05-23T23:38:42.470Z,18.57
2023-05-23T23:41:12.788Z,18.57
2023-05-23T23:43:46.323Z,18.58
2023-05-23T23:46:16.853Z,18.52
2023-05-23T23:48:49.718Z,18.46
2023-05-23T23:51:20.060Z,18.45
2023-05-23T23:53:53.214Z,18.40
2023-05-23T23:56:24.929Z,18.40
2023-05-23T23:58:55.476Z,18.40
